sensor_id;sensor_type;location;lat;lon;timestamp;temperature;humidity
60313;DHT22;46158;52.850;6.970;2022-08-16T00:01:18;22.70;66.70
60313;DHT22;46158;52.850;6.970;2022-08-16T00:03:44;22.70;66.70
60313;DHT22;46158;52.850;6.970;2022-08-16T00:06:11;22.70;66.70
60313;DHT22;46158;52.850;6.970;2022-08-16T00:08:37;22.70;66.70
60313;DHT22;46158;52.850;6.970;2022-08-16T00:11:08;22.70;66.80
60313;DHT22;46158;52.850;6.970;2022-08-16T00:13:34;22.70;66.70
60313;DHT22;46158;52.850;6.970;2022-08-16T00:15:59;22.70;66.70
60313;DHT22;46158;52.850;6.970;2022-08-16T00:18:25;22.70;66.80
60313;DHT22;46158;52.850;6.970;2022-08-16T00:20:51;22.70;66.70
60313;DHT22;46158;52.850;6.970;2022-08-16T00:23:17;22.70;66.70
60313;DHT22;46158;52.850;6.970;2022-08-16T00:25:43;22.70;66.80
60313;DHT22;46158;52.850;6.970;2022-08-16T00:28:09;22.70;66.70
60313;DHT22;46158;52.850;6.970;2022-08-16T00:30:35;22.70;66.80
60313;DHT22;46158;52.850;6.970;2022-08-16T00:33:01;22.70;66.80
60313;DHT22;46158;52.850;6.970;2022-08-16T00:35:31;22.70;66.70
60313;DHT22;46158;52.850;6.970;2022-08-16T00:37:57;22.70;66.70
60313;DHT22;46158;52.850;6.970;2022-08-16T00:40:45;22.70;66.70
60313;DHT22;46158;52.850;6.970;2022-08-16T00:43:27;22.70;66.70
60313;DHT22;46158;52.850;6.970;2022-08-16T00:48:32;22.70;66.80
60313;DHT22;46158;52.850;6.970;2022-08-16T00:51:02;22.70;66.80
60313;DHT22;46158;52.850;6.970;2022-08-16T00:53:28;22.70;66.80
60313;DHT22;46158;52.850;6.970;2022-08-16T00:55:56;22.60;66.70
60313;DHT22;46158;52.850;6.970;2022-08-16T00:58:26;22.60;66.80
60313;DHT22;46158;52.850;6.970;2022-08-16T01:00:53;22.70;66.90
60313;DHT22;46158;52.850;6.970;2022-08-16T01:03:22;22.70;66.90
60313;DHT22;46158;52.850;6.970;2022-08-16T01:05:48;22.70;66.90
60313;DHT22;46158;52.850;6.970;2022-08-16T01:08:17;22.60;66.80
60313;DHT22;46158;52.850;6.970;2022-08-16T01:10:43;22.70;66.90
60313;DHT22;46158;52.850;6.970;2022-08-16T01:13:13;22.70;66.90
60313;DHT22;46158;52.850;6.970;2022-08-16T01:15:44;22.70;66.90
60313;DHT22;46158;52.850;6.970;2022-08-16T01:18:14;22.70;66.90
60313;DHT22;46158;52.850;6.970;2022-08-16T01:20:49;22.70;66.90
60313;DHT22;46158;52.850;6.970;2022-08-16T01:23:20;22.70;67.00
60313;DHT22;46158;52.850;6.970;2022-08-16T01:25:50;22.70;67.00
60313;DHT22;46158;52.850;6.970;2022-08-16T01:28:18;22.60;66.90
60313;DHT22;46158;52.850;6.970;2022-08-16T01:30:48;22.70;67.00
60313;DHT22;46158;52.850;6.970;2022-08-16T01:33:15;22.70;67.00
60313;DHT22;46158;52.850;6.970;2022-08-16T01:35:49;22.60;67.00
60313;DHT22;46158;52.850;6.970;2022-08-16T01:38:18;22.70;67.00
60313;DHT22;46158;52.850;6.970;2022-08-16T01:40:44;22.60;67.00
60313;DHT22;46158;52.850;6.970;2022-08-16T01:43:10;22.60;67.00
60313;DHT22;46158;52.850;6.970;2022-08-16T01:45:35;22.60;67.00
60313;DHT22;46158;52.850;6.970;2022-08-16T01:48:02;22.60;67.00
60313;DHT22;46158;52.850;6.970;2022-08-16T01:50:28;22.70;67.10
60313;DHT22;46158;52.850;6.970;2022-08-16T01:52:54;22.60;67.10
60313;DHT22;46158;52.850;6.970;2022-08-16T01:55:21;22.60;67.10
60313;DHT22;46158;52.850;6.970;2022-08-16T01:57:47;22.60;67.10
60313;DHT22;46158;52.850;6.970;2022-08-16T02:00:15;22.70;67.20
60313;DHT22;46158;52.850;6.970;2022-08-16T02:02:42;22.60;67.20
60313;DHT22;46158;52.850;6.970;2022-08-16T02:05:09;22.60;67.20
60313;DHT22;46158;52.850;6.970;2022-08-16T02:07:36;22.60;67.20
60313;DHT22;46158;52.850;6.970;2022-08-16T02:10:08;22.60;67.20
60313;DHT22;46158;52.850;6.970;2022-08-16T02:12:34;22.60;67.20
60313;DHT22;46158;52.850;6.970;2022-08-16T02:15:00;22.60;67.20
60313;DHT22;46158;52.850;6.970;2022-08-16T02:17:28;22.60;67.20
60313;DHT22;46158;52.850;6.970;2022-08-16T02:19:53;22.60;67.30
60313;DHT22;46158;52.850;6.970;2022-08-16T02:22:22;22.60;67.20
60313;DHT22;46158;52.850;6.970;2022-08-16T02:24:48;22.60;67.20
60313;DHT22;46158;52.850;6.970;2022-08-16T02:27:14;22.60;67.30
60313;DHT22;46158;52.850;6.970;2022-08-16T02:29:40;22.60;67.30
60313;DHT22;46158;52.850;6.970;2022-08-16T02:32:09;22.60;67.30
60313;DHT22;46158;52.850;6.970;2022-08-16T02:34:35;22.60;67.30
60313;DHT22;46158;52.850;6.970;2022-08-16T02:37:01;22.60;67.30
60313;DHT22;46158;52.850;6.970;2022-08-16T02:39:26;22.60;67.30
60313;DHT22;46158;52.850;6.970;2022-08-16T02:41:52;22.60;67.30
60313;DHT22;46158;52.850;6.970;2022-08-16T02:44:19;22.60;67.30
60313;DHT22;46158;52.850;6.970;2022-08-16T02:46:45;22.60;67.30
60313;DHT22;46158;52.850;6.970;2022-08-16T02:49:11;22.60;68.00
60313;DHT22;46158;52.850;6.970;2022-08-16T02:51:38;22.60;67.30
60313;DHT22;46158;52.850;6.970;2022-08-16T02:54:05;22.60;67.40
60313;DHT22;46158;52.850;6.970;2022-08-16T02:56:32;22.60;67.40
60313;DHT22;46158;52.850;6.970;2022-08-16T02:58:58;22.60;67.40
60313;DHT22;46158;52.850;6.970;2022-08-16T03:01:26;22.60;67.40
60313;DHT22;46158;52.850;6.970;2022-08-16T03:03:53;22.60;67.40
60313;DHT22;46158;52.850;6.970;2022-08-16T03:06:20;22.60;67.40
60313;DHT22;46158;52.850;6.970;2022-08-16T03:08:48;22.60;67.40
60313;DHT22;46158;52.850;6.970;2022-08-16T03:11:14;22.60;67.40
60313;DHT22;46158;52.850;6.970;2022-08-16T03:13:47;22.60;67.50
60313;DHT22;46158;52.850;6.970;2022-08-16T03:16:14;22.50;67.40
60313;DHT22;46158;52.850;6.970;2022-08-16T03:18:40;22.50;67.40
60313;DHT22;46158;52.850;6.970;2022-08-16T03:21:07;22.50;67.40
60313;DHT22;46158;52.850;6.970;2022-08-16T03:23:34;22.50;67.40
60313;DHT22;46158;52.850;6.970;2022-08-16T03:26:00;22.50;67.50
60313;DHT22;46158;52.850;6.970;2022-08-16T03:28:26;22.50;67.50
60313;DHT22;46158;52.850;6.970;2022-08-16T03:30:51;22.50;67.50
60313;DHT22;46158;52.850;6.970;2022-08-16T03:33:18;22.50;67.50
60313;DHT22;46158;52.850;6.970;2022-08-16T03:35:43;22.50;67.50
60313;DHT22;46158;52.850;6.970;2022-08-16T03:38:11;22.50;67.50
60313;DHT22;46158;52.850;6.970;2022-08-16T03:40:37;22.50;67.50
60313;DHT22;46158;52.850;6.970;2022-08-16T03:43:06;22.50;67.50
60313;DHT22;46158;52.850;6.970;2022-08-16T03:45:33;22.50;67.50
60313;DHT22;46158;52.850;6.970;2022-08-16T03:47:59;22.50;67.50
60313;DHT22;46158;52.850;6.970;2022-08-16T03:50:25;22.50;67.50
60313;DHT22;46158;52.850;6.970;2022-08-16T03:52:51;22.50;67.50
60313;DHT22;46158;52.850;6.970;2022-08-16T03:55:17;22.50;67.50
60313;DHT22;46158;52.850;6.970;2022-08-16T03:57:43;22.50;67.60
60313;DHT22;46158;52.850;6.970;2022-08-16T04:00:18;22.40;67.50
60313;DHT22;46158;52.850;6.970;2022-08-16T04:02:45;22.50;67.60
60313;DHT22;46158;52.850;6.970;2022-08-16T04:05:13;22.40;67.60
60313;DHT22;46158;52.850;6.970;2022-08-16T04:07:39;22.50;67.60
60313;DHT22;46158;52.850;6.970;2022-08-16T04:10:07;22.40;67.60
60313;DHT22;46158;52.850;6.970;2022-08-16T04:12:33;22.40;67.60
60313;DHT22;46158;52.850;6.970;2022-08-16T04:15:00;22.40;67.60
60313;DHT22;46158;52.850;6.970;2022-08-16T04:17:27;22.40;67.60
60313;DHT22;46158;52.850;6.970;2022-08-16T04:19:53;22.40;67.60
60313;DHT22;46158;52.850;6.970;2022-08-16T04:22:18;22.40;67.60
60313;DHT22;46158;52.850;6.970;2022-08-16T04:24:44;22.40;67.60
60313;DHT22;46158;52.850;6.970;2022-08-16T04:27:10;22.40;67.70
60313;DHT22;46158;52.850;6.970;2022-08-16T04:29:36;22.40;67.60
60313;DHT22;46158;52.850;6.970;2022-08-16T04:32:02;22.40;67.60
60313;DHT22;46158;52.850;6.970;2022-08-16T04:34:31;22.40;67.60
60313;DHT22;46158;52.850;6.970;2022-08-16T04:36:58;22.40;67.70
60313;DHT22;46158;52.850;6.970;2022-08-16T04:39:25;22.40;67.60
60313;DHT22;46158;52.850;6.970;2022-08-16T04:41:51;22.40;67.70
60313;DHT22;46158;52.850;6.970;2022-08-16T04:44:17;22.40;67.70
60313;DHT22;46158;52.850;6.970;2022-08-16T04:46:43;22.40;67.70
60313;DHT22;46158;52.850;6.970;2022-08-16T04:49:09;22.40;67.70
60313;DHT22;46158;52.850;6.970;2022-08-16T04:51:37;22.40;67.70
60313;DHT22;46158;52.850;6.970;2022-08-16T04:54:06;22.40;67.70
60313;DHT22;46158;52.850;6.970;2022-08-16T04:56:32;22.40;67.70
60313;DHT22;46158;52.850;6.970;2022-08-16T04:58:58;22.40;67.70
60313;DHT22;46158;52.850;6.970;2022-08-16T05:01:23;22.40;67.70
60313;DHT22;46158;52.850;6.970;2022-08-16T05:03:49;22.30;69.20
60313;DHT22;46158;52.850;6.970;2022-08-16T05:06:15;22.30;70.60
60313;DHT22;46158;52.850;6.970;2022-08-16T05:08:40;22.30;71.50
60313;DHT22;46158;52.850;6.970;2022-08-16T05:11:08;22.20;72.30
60313;DHT22;46158;52.850;6.970;2022-08-16T05:13:36;22.20;72.80
60313;DHT22;46158;52.850;6.970;2022-08-16T05:16:02;22.20;73.40
60313;DHT22;46158;52.850;6.970;2022-08-16T05:18:28;22.20;73.80
60313;DHT22;46158;52.850;6.970;2022-08-16T05:20:54;22.20;74.00
60313;DHT22;46158;52.850;6.970;2022-08-16T05:23:20;22.20;74.20
60313;DHT22;46158;52.850;6.970;2022-08-16T05:25:46;22.10;74.40
60313;DHT22;46158;52.850;6.970;2022-08-16T05:28:11;22.10;74.50
60313;DHT22;46158;52.850;6.970;2022-08-16T05:30:37;22.10;74.60
60313;DHT22;46158;52.850;6.970;2022-08-16T05:33:04;22.00;74.50
60313;DHT22;46158;52.850;6.970;2022-08-16T05:35:30;22.00;74.60
60313;DHT22;46158;52.850;6.970;2022-08-16T05:37:55;22.00;74.70
60313;DHT22;46158;52.850;6.970;2022-08-16T05:40:21;22.00;74.90
60313;DHT22;46158;52.850;6.970;2022-08-16T05:42:47;22.00;75.00
60313;DHT22;46158;52.850;6.970;2022-08-16T05:45:12;22.00;75.20
60313;DHT22;46158;52.850;6.970;2022-08-16T05:47:38;22.00;75.30
60313;DHT22;46158;52.850;6.970;2022-08-16T05:50:06;22.00;75.50
60313;DHT22;46158;52.850;6.970;2022-08-16T05:52:32;22.00;75.90
60313;DHT22;46158;52.850;6.970;2022-08-16T05:54:58;22.00;76.30
60313;DHT22;46158;52.850;6.970;2022-08-16T05:57:23;22.00;76.60
60313;DHT22;46158;52.850;6.970;2022-08-16T05:59:49;22.00;76.80
60313;DHT22;46158;52.850;6.970;2022-08-16T06:02:16;22.00;77.00
60313;DHT22;46158;52.850;6.970;2022-08-16T06:04:41;22.00;77.10
60313;DHT22;46158;52.850;6.970;2022-08-16T06:07:08;22.00;77.30
60313;DHT22;46158;52.850;6.970;2022-08-16T06:09:34;22.00;77.50
60313;DHT22;46158;52.850;6.970;2022-08-16T06:11:59;22.00;77.70
60313;DHT22;46158;52.850;6.970;2022-08-16T06:14:27;22.00;77.90
60313;DHT22;46158;52.850;6.970;2022-08-16T06:16:53;22.00;78.10
60313;DHT22;46158;52.850;6.970;2022-08-16T06:19:19;22.00;78.10
60313;DHT22;46158;52.850;6.970;2022-08-16T06:21:46;22.00;78.10
60313;DHT22;46158;52.850;6.970;2022-08-16T06:24:12;22.00;78.60
60313;DHT22;46158;52.850;6.970;2022-08-16T06:26:38;22.00;78.10
60313;DHT22;46158;52.850;6.970;2022-08-16T06:29:04;22.00;77.30
60313;DHT22;46158;52.850;6.970;2022-08-16T06:31:30;22.10;77.30
60313;DHT22;46158;52.850;6.970;2022-08-16T06:33:56;22.10;76.90
60313;DHT22;46158;52.850;6.970;2022-08-16T06:36:21;22.10;76.80
60313;DHT22;46158;52.850;6.970;2022-08-16T06:38:49;22.10;76.80
60313;DHT22;46158;52.850;6.970;2022-08-16T06:41:15;22.10;76.60
60313;DHT22;46158;52.850;6.970;2022-08-16T06:43:41;22.20;76.40
60313;DHT22;46158;52.850;6.970;2022-08-16T06:46:20;22.20;76.10
60313;DHT22;46158;52.850;6.970;2022-08-16T06:48:45;22.20;75.90
60313;DHT22;46158;52.850;6.970;2022-08-16T06:51:11;22.20;75.70
60313;DHT22;46158;52.850;6.970;2022-08-16T06:53:37;22.30;75.60
60313;DHT22;46158;52.850;6.970;2022-08-16T06:56:05;22.20;75.40
60313;DHT22;46158;52.850;6.970;2022-08-16T06:58:32;22.30;75.30
60313;DHT22;46158;52.850;6.970;2022-08-16T07:01:02;22.30;75.10
60313;DHT22;46158;52.850;6.970;2022-08-16T07:03:29;22.30;75.60
60313;DHT22;46158;52.850;6.970;2022-08-16T07:05:55;22.30;75.00
60313;DHT22;46158;52.850;6.970;2022-08-16T07:08:25;22.30;75.00
60313;DHT22;46158;52.850;6.970;2022-08-16T07:10:52;22.30;74.90
60313;DHT22;46158;52.850;6.970;2022-08-16T07:13:18;22.30;74.80
60313;DHT22;46158;52.850;6.970;2022-08-16T07:15:45;22.30;74.60
60313;DHT22;46158;52.850;6.970;2022-08-16T07:18:11;22.30;74.50
60313;DHT22;46158;52.850;6.970;2022-08-16T07:20:38;22.30;74.30
60313;DHT22;46158;52.850;6.970;2022-08-16T07:23:04;22.30;74.20
60313;DHT22;46158;52.850;6.970;2022-08-16T07:25:32;22.30;74.20
60313;DHT22;46158;52.850;6.970;2022-08-16T07:27:58;22.40;74.20
60313;DHT22;46158;52.850;6.970;2022-08-16T07:30:25;22.40;74.20
60313;DHT22;46158;52.850;6.970;2022-08-16T07:32:51;22.40;74.20
60313;DHT22;46158;52.850;6.970;2022-08-16T07:35:17;22.40;74.20
60313;DHT22;46158;52.850;6.970;2022-08-16T07:37:44;22.40;74.10
60313;DHT22;46158;52.850;6.970;2022-08-16T07:40:11;22.40;74.10
60313;DHT22;46158;52.850;6.970;2022-08-16T07:42:36;22.40;74.00
60313;DHT22;46158;52.850;6.970;2022-08-16T07:45:06;22.40;74.00
60313;DHT22;46158;52.850;6.970;2022-08-16T07:47:32;22.40;73.90
60313;DHT22;46158;52.850;6.970;2022-08-16T07:50:01;22.40;73.90
60313;DHT22;46158;52.850;6.970;2022-08-16T07:52:26;22.50;73.90
60313;DHT22;46158;52.850;6.970;2022-08-16T07:54:52;22.40;73.80
60313;DHT22;46158;52.850;6.970;2022-08-16T07:57:18;22.40;74.50
60313;DHT22;46158;52.850;6.970;2022-08-16T07:59:43;22.50;73.90
60313;DHT22;46158;52.850;6.970;2022-08-16T08:02:13;22.50;73.70
60313;DHT22;46158;52.850;6.970;2022-08-16T08:04:39;22.50;73.70
60313;DHT22;46158;52.850;6.970;2022-08-16T08:07:05;22.50;73.70
60313;DHT22;46158;52.850;6.970;2022-08-16T08:09:31;22.50;73.70
60313;DHT22;46158;52.850;6.970;2022-08-16T08:11:57;22.50;73.60
60313;DHT22;46158;52.850;6.970;2022-08-16T08:14:23;22.50;73.60
60313;DHT22;46158;52.850;6.970;2022-08-16T08:16:48;22.50;73.60
60313;DHT22;46158;52.850;6.970;2022-08-16T08:19:15;22.50;74.20
60313;DHT22;46158;52.850;6.970;2022-08-16T08:21:41;22.50;73.60
60313;DHT22;46158;52.850;6.970;2022-08-16T08:24:08;22.50;73.50
60313;DHT22;46158;52.850;6.970;2022-08-16T08:26:35;22.50;73.50
60313;DHT22;46158;52.850;6.970;2022-08-16T08:29:01;22.50;73.40
60313;DHT22;46158;52.850;6.970;2022-08-16T08:31:27;22.50;73.40
60313;DHT22;46158;52.850;6.970;2022-08-16T08:33:53;22.50;73.40
60313;DHT22;46158;52.850;6.970;2022-08-16T08:36:29;22.60;73.50
60313;DHT22;46158;52.850;6.970;2022-08-16T08:38:55;22.60;73.50
60313;DHT22;46158;52.850;6.970;2022-08-16T08:41:20;22.60;73.50
60313;DHT22;46158;52.850;6.970;2022-08-16T08:43:46;22.60;73.50
60313;DHT22;46158;52.850;6.970;2022-08-16T08:46:12;22.60;73.50
60313;DHT22;46158;52.850;6.970;2022-08-16T08:48:38;22.60;73.50
60313;DHT22;46158;52.850;6.970;2022-08-16T08:51:05;22.60;73.50
60313;DHT22;46158;52.850;6.970;2022-08-16T08:53:32;22.60;73.50
60313;DHT22;46158;52.850;6.970;2022-08-16T08:55:59;22.60;73.50
60313;DHT22;46158;52.850;6.970;2022-08-16T08:58:24;22.60;73.50
60313;DHT22;46158;52.850;6.970;2022-08-16T09:00:50;22.60;73.60
60313;DHT22;46158;52.850;6.970;2022-08-16T09:03:16;22.60;73.60
60313;DHT22;46158;52.850;6.970;2022-08-16T09:05:42;22.60;73.60
60313;DHT22;46158;52.850;6.970;2022-08-16T09:08:09;22.60;73.60
60313;DHT22;46158;52.850;6.970;2022-08-16T09:10:35;22.70;73.70
60313;DHT22;46158;52.850;6.970;2022-08-16T09:13:01;22.70;73.70
60313;DHT22;46158;52.850;6.970;2022-08-16T09:15:30;22.70;73.70
60313;DHT22;46158;52.850;6.970;2022-08-16T09:17:56;22.70;73.60
60313;DHT22;46158;52.850;6.970;2022-08-16T09:20:24;22.70;74.30
60313;DHT22;46158;52.850;6.970;2022-08-16T09:22:50;22.70;73.70
60313;DHT22;46158;52.850;6.970;2022-08-16T09:25:16;22.70;73.60
60313;DHT22;46158;52.850;6.970;2022-08-16T09:27:42;22.70;73.60
60313;DHT22;46158;52.850;6.970;2022-08-16T09:30:08;22.70;73.60
60313;DHT22;46158;52.850;6.970;2022-08-16T09:32:35;22.70;73.60
60313;DHT22;46158;52.850;6.970;2022-08-16T09:35:00;22.70;73.60
60313;DHT22;46158;52.850;6.970;2022-08-16T09:37:27;22.70;73.50
60313;DHT22;46158;52.850;6.970;2022-08-16T09:39:54;22.70;73.50
60313;DHT22;46158;52.850;6.970;2022-08-16T09:42:20;22.70;73.50
60313;DHT22;46158;52.850;6.970;2022-08-16T09:44:46;22.70;73.50
60313;DHT22;46158;52.850;6.970;2022-08-16T09:47:12;22.70;73.40
60313;DHT22;46158;52.850;6.970;2022-08-16T09:49:38;22.70;73.40
60313;DHT22;46158;52.850;6.970;2022-08-16T09:52:04;22.70;73.20
60313;DHT22;46158;52.850;6.970;2022-08-16T09:54:30;22.70;73.20
60313;DHT22;46158;52.850;6.970;2022-08-16T09:56:56;22.70;73.20
60313;DHT22;46158;52.850;6.970;2022-08-16T09:59:23;22.70;73.10
60313;DHT22;46158;52.850;6.970;2022-08-16T10:01:50;22.70;73.20
60313;DHT22;46158;52.850;6.970;2022-08-16T10:04:17;22.80;73.20
60313;DHT22;46158;52.850;6.970;2022-08-16T10:06:43;22.80;73.20
60313;DHT22;46158;52.850;6.970;2022-08-16T10:09:13;22.80;73.20
60313;DHT22;46158;52.850;6.970;2022-08-16T10:11:40;22.80;73.20
60313;DHT22;46158;52.850;6.970;2022-08-16T10:14:25;22.80;73.10
60313;DHT22;46158;52.850;6.970;2022-08-16T10:17:02;22.80;73.10
60313;DHT22;46158;52.850;6.970;2022-08-16T10:19:29;22.80;73.10
60313;DHT22;46158;52.850;6.970;2022-08-16T10:21:55;22.80;73.00
60313;DHT22;46158;52.850;6.970;2022-08-16T10:24:21;22.80;72.90
60313;DHT22;46158;52.850;6.970;2022-08-16T10:26:47;22.80;72.90
60313;DHT22;46158;52.850;6.970;2022-08-16T10:29:14;22.80;72.80
60313;DHT22;46158;52.850;6.970;2022-08-16T10:31:41;22.80;72.70
60313;DHT22;46158;52.850;6.970;2022-08-16T10:34:07;22.80;72.60
60313;DHT22;46158;52.850;6.970;2022-08-16T10:36:33;22.80;72.60
60313;DHT22;46158;52.850;6.970;2022-08-16T10:38:59;22.80;72.40
60313;DHT22;46158;52.850;6.970;2022-08-16T10:41:25;22.80;72.40
60313;DHT22;46158;52.850;6.970;2022-08-16T10:43:51;22.90;72.40
60313;DHT22;46158;52.850;6.970;2022-08-16T10:46:17;22.80;72.30
60313;DHT22;46158;52.850;6.970;2022-08-16T10:48:43;22.90;72.40
60313;DHT22;46158;52.850;6.970;2022-08-16T10:51:10;22.80;72.10
60313;DHT22;46158;52.850;6.970;2022-08-16T10:53:36;22.90;72.10
60313;DHT22;46158;52.850;6.970;2022-08-16T10:56:08;22.90;72.00
60313;DHT22;46158;52.850;6.970;2022-08-16T10:58:35;22.90;72.00
60313;DHT22;46158;52.850;6.970;2022-08-16T11:01:03;22.90;72.00
60313;DHT22;46158;52.850;6.970;2022-08-16T11:03:29;22.90;72.00
60313;DHT22;46158;52.850;6.970;2022-08-16T11:05:55;22.90;72.00
60313;DHT22;46158;52.850;6.970;2022-08-16T11:08:21;22.90;71.90
60313;DHT22;46158;52.850;6.970;2022-08-16T11:10:48;22.90;71.80
60313;DHT22;46158;52.850;6.970;2022-08-16T11:13:19;22.90;71.80
60313;DHT22;46158;52.850;6.970;2022-08-16T11:15:45;22.90;71.70
60313;DHT22;46158;52.850;6.970;2022-08-16T11:18:12;22.90;72.50
60313;DHT22;46158;52.850;6.970;2022-08-16T11:20:39;22.90;71.70
60313;DHT22;46158;52.850;6.970;2022-08-16T11:23:05;22.90;71.70
60313;DHT22;46158;52.850;6.970;2022-08-16T11:25:32;22.90;71.70
60313;DHT22;46158;52.850;6.970;2022-08-16T11:27:59;22.90;71.70
60313;DHT22;46158;52.850;6.970;2022-08-16T11:30:26;23.00;71.70
60313;DHT22;46158;52.850;6.970;2022-08-16T11:32:53;23.00;71.70
60313;DHT22;46158;52.850;6.970;2022-08-16T11:35:22;23.00;71.70
60313;DHT22;46158;52.850;6.970;2022-08-16T11:37:58;23.00;71.70
60313;DHT22;46158;52.850;6.970;2022-08-16T11:40:27;23.00;71.70
60313;DHT22;46158;52.850;6.970;2022-08-16T11:42:53;23.00;71.60
60313;DHT22;46158;52.850;6.970;2022-08-16T11:45:19;23.00;71.70
60313;DHT22;46158;52.850;6.970;2022-08-16T11:47:45;23.00;71.50
60313;DHT22;46158;52.850;6.970;2022-08-16T11:50:11;23.00;71.50
60313;DHT22;46158;52.850;6.970;2022-08-16T11:52:38;23.00;71.50
60313;DHT22;46158;52.850;6.970;2022-08-16T11:55:07;23.00;71.50
60313;DHT22;46158;52.850;6.970;2022-08-16T11:57:34;23.00;71.50
60313;DHT22;46158;52.850;6.970;2022-08-16T12:00:00;23.00;71.50
60313;DHT22;46158;52.850;6.970;2022-08-16T12:02:26;23.00;71.40
60313;DHT22;46158;52.850;6.970;2022-08-16T12:04:52;23.10;71.40
60313;DHT22;46158;52.850;6.970;2022-08-16T12:07:19;23.10;71.30
60313;DHT22;46158;52.850;6.970;2022-08-16T12:09:45;23.10;71.30
60313;DHT22;46158;52.850;6.970;2022-08-16T12:12:11;23.10;71.30
60313;DHT22;46158;52.850;6.970;2022-08-16T12:14:36;23.10;71.20
60313;DHT22;46158;52.850;6.970;2022-08-16T12:17:04;23.10;71.20
60313;DHT22;46158;52.850;6.970;2022-08-16T12:19:30;23.10;71.10
60313;DHT22;46158;52.850;6.970;2022-08-16T12:21:56;23.10;71.00
60313;DHT22;46158;52.850;6.970;2022-08-16T12:24:21;23.10;71.70
60313;DHT22;46158;52.850;6.970;2022-08-16T12:26:47;23.10;71.00
60313;DHT22;46158;52.850;6.970;2022-08-16T12:29:14;23.10;70.90
60313;DHT22;46158;52.850;6.970;2022-08-16T12:31:41;23.10;70.70
60313;DHT22;46158;52.850;6.970;2022-08-16T12:34:07;23.20;70.80
60313;DHT22;46158;52.850;6.970;2022-08-16T12:36:33;23.10;70.70
60313;DHT22;46158;52.850;6.970;2022-08-16T12:39:04;23.20;70.70
60313;DHT22;46158;52.850;6.970;2022-08-16T12:41:31;23.10;70.50
60313;DHT22;46158;52.850;6.970;2022-08-16T12:43:58;23.20;70.80
60313;DHT22;46158;52.850;6.970;2022-08-16T12:46:24;23.20;70.60
60313;DHT22;46158;52.850;6.970;2022-08-16T12:48:50;23.20;70.60
60313;DHT22;46158;52.850;6.970;2022-08-16T12:51:24;23.20;70.60
60313;DHT22;46158;52.850;6.970;2022-08-16T12:53:52;23.20;70.60
60313;DHT22;46158;52.850;6.970;2022-08-16T12:56:22;23.20;70.50
60313;DHT22;46158;52.850;6.970;2022-08-16T12:58:50;23.20;70.50
60313;DHT22;46158;52.850;6.970;2022-08-16T13:01:21;23.20;70.40
60313;DHT22;46158;52.850;6.970;2022-08-16T13:03:47;23.20;70.40
60313;DHT22;46158;52.850;6.970;2022-08-16T13:06:14;23.20;70.30
60313;DHT22;46158;52.850;6.970;2022-08-16T13:08:40;23.20;70.30
60313;DHT22;46158;52.850;6.970;2022-08-16T13:11:06;23.20;70.20
60313;DHT22;46158;52.850;6.970;2022-08-16T13:13:33;23.20;70.20
60313;DHT22;46158;52.850;6.970;2022-08-16T13:16:03;23.20;70.10
60313;DHT22;46158;52.850;6.970;2022-08-16T13:18:30;23.20;70.10
60313;DHT22;46158;52.850;6.970;2022-08-16T13:20:57;23.20;70.00
60313;DHT22;46158;52.850;6.970;2022-08-16T13:23:23;23.20;70.00
60313;DHT22;46158;52.850;6.970;2022-08-16T13:25:49;23.30;70.00
60313;DHT22;46158;52.850;6.970;2022-08-16T13:28:16;23.30;70.60
60313;DHT22;46158;52.850;6.970;2022-08-16T13:30:48;23.30;69.90
60313;DHT22;46158;52.850;6.970;2022-08-16T13:33:20;23.30;69.80
60313;DHT22;46158;52.850;6.970;2022-08-16T13:35:47;23.30;69.70
60313;DHT22;46158;52.850;6.970;2022-08-16T13:38:14;23.30;69.70
60313;DHT22;46158;52.850;6.970;2022-08-16T13:40:40;23.30;69.70
60313;DHT22;46158;52.850;6.970;2022-08-16T13:43:06;23.30;69.60
60313;DHT22;46158;52.850;6.970;2022-08-16T13:45:32;23.30;69.60
60313;DHT22;46158;52.850;6.970;2022-08-16T13:48:00;23.30;69.50
60313;DHT22;46158;52.850;6.970;2022-08-16T13:50:26;23.30;69.50
60313;DHT22;46158;52.850;6.970;2022-08-16T13:52:53;23.30;69.40
60313;DHT22;46158;52.850;6.970;2022-08-16T13:55:19;23.30;69.40
60313;DHT22;46158;52.850;6.970;2022-08-16T13:57:45;23.40;69.30
60313;DHT22;46158;52.850;6.970;2022-08-16T14:00:11;23.30;69.20
60313;DHT22;46158;52.850;6.970;2022-08-16T14:02:37;23.30;69.20
60313;DHT22;46158;52.850;6.970;2022-08-16T14:05:03;23.40;69.20
60313;DHT22;46158;52.850;6.970;2022-08-16T14:07:29;23.40;69.20
60313;DHT22;46158;52.850;6.970;2022-08-16T14:09:55;23.30;69.10
60313;DHT22;46158;52.850;6.970;2022-08-16T14:12:27;23.40;69.10
60313;DHT22;46158;52.850;6.970;2022-08-16T14:14:53;23.40;69.00
60313;DHT22;46158;52.850;6.970;2022-08-16T14:17:20;23.40;69.00
60313;DHT22;46158;52.850;6.970;2022-08-16T14:19:47;23.40;68.90
60313;DHT22;46158;52.850;6.970;2022-08-16T14:22:16;23.40;68.90
60313;DHT22;46158;52.850;6.970;2022-08-16T14:24:44;23.40;68.80
60313;DHT22;46158;52.850;6.970;2022-08-16T14:27:10;23.40;68.80
60313;DHT22;46158;52.850;6.970;2022-08-16T14:29:36;23.40;68.70
60313;DHT22;46158;52.850;6.970;2022-08-16T14:32:05;23.40;68.70
60313;DHT22;46158;52.850;6.970;2022-08-16T14:34:30;23.40;68.60
60313;DHT22;46158;52.850;6.970;2022-08-16T14:36:56;23.40;68.60
60313;DHT22;46158;52.850;6.970;2022-08-16T14:39:22;23.40;68.60
60313;DHT22;46158;52.850;6.970;2022-08-16T14:41:47;23.40;68.50
60313;DHT22;46158;52.850;6.970;2022-08-16T14:44:13;23.40;68.50
60313;DHT22;46158;52.850;6.970;2022-08-16T14:46:38;23.40;68.50
60313;DHT22;46158;52.850;6.970;2022-08-16T14:49:04;23.40;68.40
60313;DHT22;46158;52.850;6.970;2022-08-16T14:51:30;23.40;68.40
60313;DHT22;46158;52.850;6.970;2022-08-16T14:53:55;23.40;68.40
60313;DHT22;46158;52.850;6.970;2022-08-16T14:56:23;23.40;68.40
60313;DHT22;46158;52.850;6.970;2022-08-16T14:58:49;23.40;68.40
60313;DHT22;46158;52.850;6.970;2022-08-16T15:01:15;23.50;68.40
60313;DHT22;46158;52.850;6.970;2022-08-16T15:03:41;23.50;68.30
60313;DHT22;46158;52.850;6.970;2022-08-16T15:06:06;23.50;68.30
60313;DHT22;46158;52.850;6.970;2022-08-16T15:08:32;23.50;68.30
60313;DHT22;46158;52.850;6.970;2022-08-16T15:10:58;23.50;68.20
60313;DHT22;46158;52.850;6.970;2022-08-16T15:13:24;23.50;68.20
60313;DHT22;46158;52.850;6.970;2022-08-16T15:15:49;23.50;68.20
60313;DHT22;46158;52.850;6.970;2022-08-16T15:18:18;23.50;68.20
60313;DHT22;46158;52.850;6.970;2022-08-16T15:20:44;23.50;68.20
60313;DHT22;46158;52.850;6.970;2022-08-16T15:23:10;23.50;68.10
60313;DHT22;46158;52.850;6.970;2022-08-16T15:25:42;23.50;68.10
60313;DHT22;46158;52.850;6.970;2022-08-16T15:28:10;23.50;68.00
60313;DHT22;46158;52.850;6.970;2022-08-16T15:30:37;23.50;68.00